sensor_id;sensor_type;location;lat;lon;timestamp;temperature;humidity
23267;DHT22;11802;53.160;8.214;2023-07-20T00:00:35;15.30;99.90
23267;DHT22;11802;53.160;8.214;2023-07-20T00:03:13;15.30;99.90
23267;DHT22;11802;53.160;8.214;2023-07-20T00:05:44;15.30;99.90
23267;DHT22;11802;53.160;8.214;2023-07-20T00:08:10;15.20;99.90
23267;DHT22;11802;53.160;8.214;2023-07-20T00:10:35;15.20;99.90
23267;DHT22;11802;53.160;8.214;2023-07-20T00:13:01;15.20;99.90
23267;DHT22;11802;53.160;8.214;2023-07-20T00:15:26;15.10;99.90
23267;DHT22;11802;53.160;8.214;2023-07-20T00:17:52;15.10;99.90
23267;DHT22;11802;53.160;8.214;2023-07-20T00:20:18;15.10;99.90
23267;DHT22;11802;53.160;8.214;2023-07-20T00:22:43;15.00;99.90
23267;DHT22;11802;53.160;8.214;2023-07-20T00:25:09;15.00;99.90
23267;DHT22;11802;53.160;8.214;2023-07-20T00:27:37;15.00;99.90
23267;DHT22;11802;53.160;8.214;2023-07-20T00:30:04;15.10;99.90
23267;DHT22;11802;53.160;8.214;2023-07-20T00:32:29;15.10;99.90
23267;DHT22;11802;53.160;8.214;2023-07-20T00:34:55;15.00;99.90
23267;DHT22;11802;53.160;8.214;2023-07-20T00:37:20;15.10;99.90
23267;DHT22;11802;53.160;8.214;2023-07-20T00:39:46;15.00;99.90
23267;DHT22;11802;53.160;8.214;2023-07-20T00:42:11;15.00;99.90
23267;DHT22;11802;53.160;8.214;2023-07-20T00:44:37;15.00;99.90
23267;DHT22;11802;53.160;8.214;2023-07-20T00:47:03;15.00;99.90
23267;DHT22;11802;53.160;8.214;2023-07-20T00:49:28;15.00;99.90
23267;DHT22;11802;53.160;8.214;2023-07-20T00:51:54;15.00;99.90
23267;DHT22;11802;53.160;8.214;2023-07-20T00:54:20;15.00;99.90
23267;DHT22;11802;53.160;8.214;2023-07-20T00:56:45;15.00;99.90
23267;DHT22;11802;53.160;8.214;2023-07-20T00:59:11;15.00;99.90
23267;DHT22;11802;53.160;8.214;2023-07-20T01:01:38;14.90;99.90
23267;DHT22;11802;53.160;8.214;2023-07-20T01:04:04;14.90;99.90
23267;DHT22;11802;53.160;8.214;2023-07-20T01:09:14;15.00;99.90
23267;DHT22;11802;53.160;8.214;2023-07-20T01:14:29;15.00;99.90
23267;DHT22;11802;53.160;8.214;2023-07-20T01:16:57;15.00;99.90
23267;DHT22;11802;53.160;8.214;2023-07-20T01:19:22;15.00;99.90
23267;DHT22;11802;53.160;8.214;2023-07-20T01:21:55;15.00;99.90
23267;DHT22;11802;53.160;8.214;2023-07-20T01:27:32;14.90;99.90
23267;DHT22;11802;53.160;8.214;2023-07-20T01:30:09;15.00;99.90
23267;DHT22;11802;53.160;8.214;2023-07-20T01:32:37;14.90;99.90
23267;DHT22;11802;53.160;8.214;2023-07-20T01:35:06;14.90;99.90
23267;DHT22;11802;53.160;8.214;2023-07-20T01:37:32;14.90;99.90
23267;DHT22;11802;53.160;8.214;2023-07-20T01:39:59;14.90;99.90
23267;DHT22;11802;53.160;8.214;2023-07-20T01:42:26;14.90;99.90
23267;DHT22;11802;53.160;8.214;2023-07-20T01:44:51;14.90;99.90
23267;DHT22;11802;53.160;8.214;2023-07-20T01:47:18;14.90;99.90
23267;DHT22;11802;53.160;8.214;2023-07-20T01:49:43;14.90;99.90
23267;DHT22;11802;53.160;8.214;2023-07-20T01:52:09;14.90;99.90
23267;DHT22;11802;53.160;8.214;2023-07-20T01:54:34;14.80;99.90
23267;DHT22;11802;53.160;8.214;2023-07-20T01:57:00;14.80;99.90
23267;DHT22;11802;53.160;8.214;2023-07-20T01:59:25;14.80;99.90
23267;DHT22;11802;53.160;8.214;2023-07-20T02:01:51;14.80;99.90
23267;DHT22;11802;53.160;8.214;2023-07-20T02:04:16;14.80;99.90
23267;DHT22;11802;53.160;8.214;2023-07-20T02:06:42;14.70;99.90
23267;DHT22;11802;53.160;8.214;2023-07-20T02:09:08;14.80;99.90
23267;DHT22;11802;53.160;8.214;2023-07-20T02:11:33;14.80;99.90
23267;DHT22;11802;53.160;8.214;2023-07-20T02:13:59;14.70;99.90
23267;DHT22;11802;53.160;8.214;2023-07-20T02:16:24;14.70;99.90
23267;DHT22;11802;53.160;8.214;2023-07-20T02:18:50;14.70;99.90
23267;DHT22;11802;53.160;8.214;2023-07-20T02:21:15;14.70;99.90
23267;DHT22;11802;53.160;8.214;2023-07-20T02:23:41;14.70;99.90
23267;DHT22;11802;53.160;8.214;2023-07-20T02:26:06;14.70;99.90
23267;DHT22;11802;53.160;8.214;2023-07-20T02:28:32;14.70;99.90
23267;DHT22;11802;53.160;8.214;2023-07-20T02:30:57;14.70;99.90
23267;DHT22;11802;53.160;8.214;2023-07-20T02:33:23;14.70;99.90
23267;DHT22;11802;53.160;8.214;2023-07-20T02:35:48;14.60;99.90
23267;DHT22;11802;53.160;8.214;2023-07-20T02:38:14;14.60;99.90
23267;DHT22;11802;53.160;8.214;2023-07-20T02:40:40;14.60;99.90
23267;DHT22;11802;53.160;8.214;2023-07-20T02:43:05;14.60;99.90
23267;DHT22;11802;53.160;8.214;2023-07-20T02:45:31;14.60;99.90
23267;DHT22;11802;53.160;8.214;2023-07-20T02:47:56;14.60;99.90
23267;DHT22;11802;53.160;8.214;2023-07-20T02:50:22;14.50;99.90
23267;DHT22;11802;53.160;8.214;2023-07-20T02:52:47;14.50;99.90
23267;DHT22;11802;53.160;8.214;2023-07-20T02:55:13;14.60;99.90
23267;DHT22;11802;53.160;8.214;2023-07-20T02:57:39;14.60;99.90
23267;DHT22;11802;53.160;8.214;2023-07-20T03:00:05;14.60;99.90
23267;DHT22;11802;53.160;8.214;2023-07-20T03:02:31;14.60;99.90
23267;DHT22;11802;53.160;8.214;2023-07-20T03:04:57;14.50;99.90
23267;DHT22;11802;53.160;8.214;2023-07-20T03:07:27;14.60;99.90
23267;DHT22;11802;53.160;8.214;2023-07-20T03:09:53;14.50;99.90
23267;DHT22;11802;53.160;8.214;2023-07-20T03:12:20;14.50;99.90
23267;DHT22;11802;53.160;8.214;2023-07-20T03:14:46;14.50;99.90
23267;DHT22;11802;53.160;8.214;2023-07-20T03:17:11;14.50;99.90
23267;DHT22;11802;53.160;8.214;2023-07-20T03:19:37;14.50;99.90
23267;DHT22;11802;53.160;8.214;2023-07-20T03:22:02;14.50;99.90
23267;DHT22;11802;53.160;8.214;2023-07-20T03:24:28;14.50;99.90
23267;DHT22;11802;53.160;8.214;2023-07-20T03:26:53;14.50;99.90
23267;DHT22;11802;53.160;8.214;2023-07-20T03:29:19;14.60;99.90
23267;DHT22;11802;53.160;8.214;2023-07-20T03:31:45;14.60;99.90
23267;DHT22;11802;53.160;8.214;2023-07-20T03:34:10;14.50;99.90
23267;DHT22;11802;53.160;8.214;2023-07-20T03:36:36;14.50;99.90
23267;DHT22;11802;53.160;8.214;2023-07-20T03:39:01;14.40;99.90
23267;DHT22;11802;53.160;8.214;2023-07-20T03:41:28;14.40;99.90
23267;DHT22;11802;53.160;8.214;2023-07-20T03:43:53;14.30;99.90
23267;DHT22;11802;53.160;8.214;2023-07-20T03:46:19;14.30;99.90
23267;DHT22;11802;53.160;8.214;2023-07-20T03:48:45;14.30;99.90
23267;DHT22;11802;53.160;8.214;2023-07-20T03:51:10;14.30;99.90
23267;DHT22;11802;53.160;8.214;2023-07-20T03:53:36;14.30;99.90
23267;DHT22;11802;53.160;8.214;2023-07-20T03:56:02;14.30;99.90
23267;DHT22;11802;53.160;8.214;2023-07-20T03:58:27;14.30;99.90
23267;DHT22;11802;53.160;8.214;2023-07-20T04:00:53;14.30;99.90
23267;DHT22;11802;53.160;8.214;2023-07-20T04:03:19;14.30;99.90
23267;DHT22;11802;53.160;8.214;2023-07-20T04:05:45;14.30;99.90
23267;DHT22;11802;53.160;8.214;2023-07-20T04:08:11;14.30;99.90
23267;DHT22;11802;53.160;8.214;2023-07-20T04:10:37;14.40;99.90
23267;DHT22;11802;53.160;8.214;2023-07-20T04:13:03;14.40;99.90
23267;DHT22;11802;53.160;8.214;2023-07-20T04:15:29;14.40;99.90
23267;DHT22;11802;53.160;8.214;2023-07-20T04:17:55;15.10;99.90
23267;DHT22;11802;53.160;8.214;2023-07-20T04:20:22;16.30;99.90
23267;DHT22;11802;53.160;8.214;2023-07-20T04:22:48;17.30;99.90
23267;DHT22;11802;53.160;8.214;2023-07-20T04:25:13;18.30;99.90
23267;DHT22;11802;53.160;8.214;2023-07-20T04:27:39;19.30;99.90
23267;DHT22;11802;53.160;8.214;2023-07-20T04:30:07;20.10;99.90
23267;DHT22;11802;53.160;8.214;2023-07-20T04:32:33;20.60;1.00
23267;DHT22;11802;53.160;8.214;2023-07-20T04:34:59;21.20;99.90
23267;DHT22;11802;53.160;8.214;2023-07-20T04:37:25;21.50;1.00
23267;DHT22;11802;53.160;8.214;2023-07-20T04:39:50;21.90;1.00
23267;DHT22;11802;53.160;8.214;2023-07-20T04:42:15;22.50;1.00
23267;DHT22;11802;53.160;8.214;2023-07-20T04:44:41;22.80;1.00
23267;DHT22;11802;53.160;8.214;2023-07-20T04:47:07;23.30;1.00
23267;DHT22;11802;53.160;8.214;2023-07-20T04:49:34;23.60;99.90
23267;DHT22;11802;53.160;8.214;2023-07-20T04:51:59;24.00;1.00
23267;DHT22;11802;53.160;8.214;2023-07-20T04:54:25;24.40;99.90
23267;DHT22;11802;53.160;8.214;2023-07-20T04:56:52;24.90;1.00
23267;DHT22;11802;53.160;8.214;2023-07-20T04:59:18;25.30;99.90
23267;DHT22;11802;53.160;8.214;2023-07-20T05:01:43;25.80;99.90
23267;DHT22;11802;53.160;8.214;2023-07-20T05:04:09;26.00;36.00
23267;DHT22;11802;53.160;8.214;2023-07-20T05:06:35;26.40;1.00
23267;DHT22;11802;53.160;8.214;2023-07-20T05:09:00;26.40;1.00
23267;DHT22;11802;53.160;8.214;2023-07-20T05:11:26;26.40;26.00
23267;DHT22;11802;53.160;8.214;2023-07-20T05:13:51;26.60;99.90
23267;DHT22;11802;53.160;8.214;2023-07-20T05:16:17;27.00;99.90
23267;DHT22;11802;53.160;8.214;2023-07-20T05:18:42;27.40;1.00
23267;DHT22;11802;53.160;8.214;2023-07-20T05:21:08;27.60;85.70
23267;DHT22;11802;53.160;8.214;2023-07-20T05:23:33;27.80;99.90
23267;DHT22;11802;53.160;8.214;2023-07-20T05:25:59;28.10;99.90
23267;DHT22;11802;53.160;8.214;2023-07-20T05:28:25;28.50;99.90
23267;DHT22;11802;53.160;8.214;2023-07-20T05:30:54;28.50;99.90
23267;DHT22;11802;53.160;8.214;2023-07-20T05:33:20;28.30;99.90
23267;DHT22;11802;53.160;8.214;2023-07-20T05:35:46;27.90;99.90
23267;DHT22;11802;53.160;8.214;2023-07-20T05:38:12;26.30;1.00
23267;DHT22;11802;53.160;8.214;2023-07-20T05:40:41;25.00;99.90
23267;DHT22;11802;53.160;8.214;2023-07-20T05:43:10;23.90;1.00
23267;DHT22;11802;53.160;8.214;2023-07-20T05:45:36;23.30;1.00
23267;DHT22;11802;53.160;8.214;2023-07-20T05:48:01;23.10;1.00
23267;DHT22;11802;53.160;8.214;2023-07-20T05:50:27;24.00;1.00
23267;DHT22;11802;53.160;8.214;2023-07-20T05:52:53;25.10;17.30
23267;DHT22;11802;53.160;8.214;2023-07-20T05:55:19;26.60;20.30
23267;DHT22;11802;53.160;8.214;2023-07-20T05:57:44;27.80;1.00
23267;DHT22;11802;53.160;8.214;2023-07-20T06:00:10;28.30;1.00
23267;DHT22;11802;53.160;8.214;2023-07-20T06:02:38;28.70;1.00
23267;DHT22;11802;53.160;8.214;2023-07-20T06:05:05;29.40;66.70
23267;DHT22;11802;53.160;8.214;2023-07-20T06:07:30;29.90;1.00
23267;DHT22;11802;53.160;8.214;2023-07-20T06:09:56;30.40;1.00
23267;DHT22;11802;53.160;8.214;2023-07-20T06:12:23;31.10;1.00
23267;DHT22;11802;53.160;8.214;2023-07-20T06:14:49;30.80;1.00
23267;DHT22;11802;53.160;8.214;2023-07-20T06:17:14;31.40;1.00
23267;DHT22;11802;53.160;8.214;2023-07-20T06:19:40;31.60;1.00
23267;DHT22;11802;53.160;8.214;2023-07-20T06:22:05;31.40;1.00
23267;DHT22;11802;53.160;8.214;2023-07-20T06:24:31;29.50;1.00
23267;DHT22;11802;53.160;8.214;2023-07-20T06:26:56;28.60;1.00
23267;DHT22;11802;53.160;8.214;2023-07-20T06:29:22;27.70;1.00
23267;DHT22;11802;53.160;8.214;2023-07-20T06:31:47;26.70;1.00
23267;DHT22;11802;53.160;8.214;2023-07-20T06:34:13;26.20;1.00
23267;DHT22;11802;53.160;8.214;2023-07-20T06:36:38;27.00;1.00
23267;DHT22;11802;53.160;8.214;2023-07-20T06:39:04;28.00;1.00
23267;DHT22;11802;53.160;8.214;2023-07-20T06:41:29;28.00;1.00
23267;DHT22;11802;53.160;8.214;2023-07-20T06:43:55;27.60;1.00
23267;DHT22;11802;53.160;8.214;2023-07-20T06:46:24;28.10;1.00
23267;DHT22;11802;53.160;8.214;2023-07-20T06:48:50;28.90;1.00
23267;DHT22;11802;53.160;8.214;2023-07-20T06:51:16;29.30;1.00
23267;DHT22;11802;53.160;8.214;2023-07-20T06:53:43;29.60;1.00
23267;DHT22;11802;53.160;8.214;2023-07-20T06:56:08;30.10;1.00
23267;DHT22;11802;53.160;8.214;2023-07-20T06:58:34;30.90;1.00
23267;DHT22;11802;53.160;8.214;2023-07-20T07:01:04;31.80;1.00
23267;DHT22;11802;53.160;8.214;2023-07-20T07:03:30;32.60;1.00
23267;DHT22;11802;53.160;8.214;2023-07-20T07:05:56;33.00;1.00
23267;DHT22;11802;53.160;8.214;2023-07-20T07:08:21;33.30;1.00
23267;DHT22;11802;53.160;8.214;2023-07-20T07:10:47;33.00;1.00
23267;DHT22;11802;53.160;8.214;2023-07-20T07:13:12;33.60;1.00
23267;DHT22;11802;53.160;8.214;2023-07-20T07:15:38;33.70;1.00
23267;DHT22;11802;53.160;8.214;2023-07-20T07:18:03;32.60;1.00
23267;DHT22;11802;53.160;8.214;2023-07-20T07:20:29;32.00;1.00
23267;DHT22;11802;53.160;8.214;2023-07-20T07:22:55;32.10;1.00
23267;DHT22;11802;53.160;8.214;2023-07-20T07:25:21;32.50;1.00
23267;DHT22;11802;53.160;8.214;2023-07-20T07:27:46;32.80;1.00
23267;DHT22;11802;53.160;8.214;2023-07-20T07:30:12;33.20;1.00
23267;DHT22;11802;53.160;8.214;2023-07-20T07:32:38;33.20;1.00
23267;DHT22;11802;53.160;8.214;2023-07-20T07:35:04;32.50;1.00
23267;DHT22;11802;53.160;8.214;2023-07-20T07:37:30;32.60;99.90
23267;DHT22;11802;53.160;8.214;2023-07-20T07:39:55;33.60;99.90
23267;DHT22;11802;53.160;8.214;2023-07-20T07:42:21;34.00;99.90
23267;DHT22;11802;53.160;8.214;2023-07-20T07:44:46;33.60;99.90
23267;DHT22;11802;53.160;8.214;2023-07-20T07:47:12;32.50;99.90
23267;DHT22;11802;53.160;8.214;2023-07-20T07:49:37;30.50;99.90
23267;DHT22;11802;53.160;8.214;2023-07-20T07:52:03;29.20;99.90
23267;DHT22;11802;53.160;8.214;2023-07-20T07:54:29;29.30;1.00
23267;DHT22;11802;53.160;8.214;2023-07-20T07:56:54;30.30;99.90
23267;DHT22;11802;53.160;8.214;2023-07-20T07:59:20;31.30;99.90
23267;DHT22;11802;53.160;8.214;2023-07-20T08:01:45;31.60;99.90
23267;DHT22;11802;53.160;8.214;2023-07-20T08:04:11;32.60;99.90
23267;DHT22;11802;53.160;8.214;2023-07-20T08:06:37;33.50;99.90
23267;DHT22;11802;53.160;8.214;2023-07-20T08:09:02;33.60;99.90
23267;DHT22;11802;53.160;8.214;2023-07-20T08:11:28;34.00;99.90
23267;DHT22;11802;53.160;8.214;2023-07-20T08:13:56;33.50;99.90
23267;DHT22;11802;53.160;8.214;2023-07-20T08:16:21;33.20;99.90
23267;DHT22;11802;53.160;8.214;2023-07-20T08:18:47;33.30;99.90
23267;DHT22;11802;53.160;8.214;2023-07-20T08:21:13;32.80;99.90
23267;DHT22;11802;53.160;8.214;2023-07-20T08:23:38;33.00;99.90
23267;DHT22;11802;53.160;8.214;2023-07-20T08:26:04;33.20;99.90
23267;DHT22;11802;53.160;8.214;2023-07-20T08:28:29;33.30;99.90
23267;DHT22;11802;53.160;8.214;2023-07-20T08:30:55;34.00;99.90
23267;DHT22;11802;53.160;8.214;2023-07-20T08:33:20;34.50;99.90
23267;DHT22;11802;53.160;8.214;2023-07-20T08:35:46;33.90;99.90
23267;DHT22;11802;53.160;8.214;2023-07-20T08:38:12;34.10;99.90
23267;DHT22;11802;53.160;8.214;2023-07-20T08:40:45;34.40;99.90
23267;DHT22;11802;53.160;8.214;2023-07-20T08:43:12;34.40;99.90
23267;DHT22;11802;53.160;8.214;2023-07-20T08:45:39;33.10;99.90
23267;DHT22;11802;53.160;8.214;2023-07-20T08:48:08;32.60;99.90
23267;DHT22;11802;53.160;8.214;2023-07-20T08:50:35;31.90;99.90
23267;DHT22;11802;53.160;8.214;2023-07-20T08:53:01;31.40;99.90
23267;DHT22;11802;53.160;8.214;2023-07-20T08:55:28;31.50;99.90
23267;DHT22;11802;53.160;8.214;2023-07-20T08:57:58;31.80;99.90
23267;DHT22;11802;53.160;8.214;2023-07-20T09:00:25;33.00;99.90
23267;DHT22;11802;53.160;8.214;2023-07-20T09:02:54;33.40;99.90
23267;DHT22;11802;53.160;8.214;2023-07-20T09:05:21;34.00;99.90
23267;DHT22;11802;53.160;8.214;2023-07-20T09:07:48;34.30;99.90
23267;DHT22;11802;53.160;8.214;2023-07-20T09:10:13;33.80;99.90
23267;DHT22;11802;53.160;8.214;2023-07-20T09:12:43;32.00;99.90
23267;DHT22;11802;53.160;8.214;2023-07-20T09:15:10;30.30;99.90
23267;DHT22;11802;53.160;8.214;2023-07-20T09:17:36;28.40;99.90
23267;DHT22;11802;53.160;8.214;2023-07-20T09:20:04;26.80;99.90
23267;DHT22;11802;53.160;8.214;2023-07-20T09:22:34;26.00;99.90
23267;DHT22;11802;53.160;8.214;2023-07-20T09:24:59;25.20;99.90
23267;DHT22;11802;53.160;8.214;2023-07-20T09:27:46;24.60;1.00
23267;DHT22;11802;53.160;8.214;2023-07-20T09:30:13;25.20;1.00
23267;DHT22;11802;53.160;8.214;2023-07-20T09:32:49;26.80;1.00
23267;DHT22;11802;53.160;8.214;2023-07-20T09:35:17;28.40;1.00
23267;DHT22;11802;53.160;8.214;2023-07-20T09:37:50;29.70;1.00
23267;DHT22;11802;53.160;8.214;2023-07-20T09:40:18;30.80;99.90
23267;DHT22;11802;53.160;8.214;2023-07-20T09:42:44;30.70;99.90
23267;DHT22;11802;53.160;8.214;2023-07-20T09:45:10;31.00;99.90
23267;DHT22;11802;53.160;8.214;2023-07-20T09:47:37;30.60;99.90
23267;DHT22;11802;53.160;8.214;2023-07-20T09:50:07;29.70;99.90
23267;DHT22;11802;53.160;8.214;2023-07-20T09:52:42;28.40;99.90
23267;DHT22;11802;53.160;8.214;2023-07-20T09:55:10;28.10;99.90
23267;DHT22;11802;53.160;8.214;2023-07-20T09:57:37;27.30;99.90
23267;DHT22;11802;53.160;8.214;2023-07-20T10:00:04;26.90;99.90
23267;DHT22;11802;53.160;8.214;2023-07-20T10:02:42;26.90;1.00
23267;DHT22;11802;53.160;8.214;2023-07-20T10:05:13;27.60;1.00
23267;DHT22;11802;53.160;8.214;2023-07-20T10:07:50;28.60;1.00
23267;DHT22;11802;53.160;8.214;2023-07-20T10:10:17;29.60;1.00
23267;DHT22;11802;53.160;8.214;2023-07-20T10:12:46;30.30;99.90
23267;DHT22;11802;53.160;8.214;2023-07-20T10:15:26;30.30;99.90
23267;DHT22;11802;53.160;8.214;2023-07-20T10:18:12;29.60;99.90
23267;DHT22;11802;53.160;8.214;2023-07-20T10:20:40;29.80;99.90
23267;DHT22;11802;53.160;8.214;2023-07-20T10:23:07;29.70;99.90
23267;DHT22;11802;53.160;8.214;2023-07-20T10:25:33;30.10;99.90
23267;DHT22;11802;53.160;8.214;2023-07-20T10:28:06;29.80;99.90
23267;DHT22;11802;53.160;8.214;2023-07-20T10:30:34;29.50;99.90
23267;DHT22;11802;53.160;8.214;2023-07-20T10:33:04;28.70;99.90
23267;DHT22;11802;53.160;8.214;2023-07-20T10:35:29;28.80;99.90
23267;DHT22;11802;53.160;8.214;2023-07-20T10:38:00;29.20;99.90
23267;DHT22;11802;53.160;8.214;2023-07-20T10:43:06;30.00;99.90
23267;DHT22;11802;53.160;8.214;2023-07-20T10:45:45;29.70;99.90
23267;DHT22;11802;53.160;8.214;2023-07-20T10:48:15;30.40;99.90
23267;DHT22;11802;53.160;8.214;2023-07-20T10:50:45;30.60;99.90
23267;DHT22;11802;53.160;8.214;2023-07-20T10:53:12;30.90;99.90
23267;DHT22;11802;53.160;8.214;2023-07-20T10:55:41;31.00;99.90
23267;DHT22;11802;53.160;8.214;2023-07-20T10:58:08;31.10;99.90
23267;DHT22;11802;53.160;8.214;2023-07-20T11:00:35;31.20;99.90
23267;DHT22;11802;53.160;8.214;2023-07-20T11:03:01;31.30;99.90
23267;DHT22;11802;53.160;8.214;2023-07-20T11:05:39;31.60;99.90
23267;DHT22;11802;53.160;8.214;2023-07-20T11:08:10;31.90;99.90
23267;DHT22;11802;53.160;8.214;2023-07-20T11:10:36;31.30;99.90
23267;DHT22;11802;53.160;8.214;2023-07-20T11:13:23;30.90;99.90
23267;DHT22;11802;53.160;8.214;2023-07-20T11:18:25;31.40;99.90
23267;DHT22;11802;53.160;8.214;2023-07-20T11:20:51;30.50;99.90
23267;DHT22;11802;53.160;8.214;2023-07-20T11:23:17;29.70;99.90
23267;DHT22;11802;53.160;8.214;2023-07-20T11:25:42;29.00;99.90
23267;DHT22;11802;53.160;8.214;2023-07-20T11:28:09;29.60;99.90
23267;DHT22;11802;53.160;8.214;2023-07-20T11:30:36;29.50;99.90
23267;DHT22;11802;53.160;8.214;2023-07-20T11:33:02;29.00;99.90
23267;DHT22;11802;53.160;8.214;2023-07-20T11:35:27;28.20;99.90
23267;DHT22;11802;53.160;8.214;2023-07-20T11:37:53;27.40;99.90
23267;DHT22;11802;53.160;8.214;2023-07-20T11:40:20;26.90;99.90
23267;DHT22;11802;53.160;8.214;2023-07-20T11:42:45;27.10;99.90
23267;DHT22;11802;53.160;8.214;2023-07-20T11:45:11;27.50;99.90
23267;DHT22;11802;53.160;8.214;2023-07-20T11:47:40;27.60;99.90
23267;DHT22;11802;53.160;8.214;2023-07-20T11:50:07;27.30;99.90
23267;DHT22;11802;53.160;8.214;2023-07-20T11:52:33;27.10;99.90
23267;DHT22;11802;53.160;8.214;2023-07-20T11:54:59;26.70;99.90
23267;DHT22;11802;53.160;8.214;2023-07-20T11:57:25;26.00;99.90
23267;DHT22;11802;53.160;8.214;2023-07-20T12:00:09;25.70;99.90
23267;DHT22;11802;53.160;8.214;2023-07-20T12:02:38;25.50;99.90
23267;DHT22;11802;53.160;8.214;2023-07-20T12:05:07;25.70;99.90
23267;DHT22;11802;53.160;8.214;2023-07-20T12:07:35;25.80;99.90
23267;DHT22;11802;53.160;8.214;2023-07-20T12:10:09;26.20;99.90
23267;DHT22;11802;53.160;8.214;2023-07-20T12:12:38;26.70;99.90
23267;DHT22;11802;53.160;8.214;2023-07-20T12:15:24;26.90;99.90
23267;DHT22;11802;53.160;8.214;2023-07-20T12:17:56;27.00;99.90
23267;DHT22;11802;53.160;8.214;2023-07-20T12:20:30;27.10;99.90
23267;DHT22;11802;53.160;8.214;2023-07-20T12:22:58;27.20;99.90
23267;DHT22;11802;53.160;8.214;2023-07-20T12:25:23;27.20;99.90
23267;DHT22;11802;53.160;8.214;2023-07-20T12:28:00;27.00;99.90
23267;DHT22;11802;53.160;8.214;2023-07-20T12:30:27;26.70;99.90
23267;DHT22;11802;53.160;8.214;2023-07-20T12:32:53;27.00;99.90
23267;DHT22;11802;53.160;8.214;2023-07-20T12:35:18;26.90;99.90
23267;DHT22;11802;53.160;8.214;2023-07-20T12:37:44;27.10;99.90
23267;DHT22;11802;53.160;8.214;2023-07-20T12:40:14;27.20;99.90
23267;DHT22;11802;53.160;8.214;2023-07-20T12:42:39;27.50;99.90
23267;DHT22;11802;53.160;8.214;2023-07-20T12:45:05;27.20;99.90
23267;DHT22;11802;53.160;8.214;2023-07-20T12:47:31;26.80;99.90
23267;DHT22;11802;53.160;8.214;2023-07-20T12:49:56;27.00;99.90
23267;DHT22;11802;53.160;8.214;2023-07-20T12:52:22;27.00;99.90
23267;DHT22;11802;53.160;8.214;2023-07-20T12:54:47;27.00;99.90
23267;DHT22;11802;53.160;8.214;2023-07-20T12:57:13;27.20;99.90
23267;DHT22;11802;53.160;8.214;2023-07-20T12:59:38;27.60;99.90
23267;DHT22;11802;53.160;8.214;2023-07-20T13:02:04;27.70;99.90
23267;DHT22;11802;53.160;8.214;2023-07-20T13:04:30;27.40;99.90
23267;DHT22;11802;53.160;8.214;2023-07-20T13:06:56;27.30;99.90
23267;DHT22;11802;53.160;8.214;2023-07-20T13:09:24;26.10;99.90
23267;DHT22;11802;53.160;8.214;2023-07-20T13:11:49;25.80;99.90
23267;DHT22;11802;53.160;8.214;2023-07-20T13:14:15;25.40;1.00
23267;DHT22;11802;53.160;8.214;2023-07-20T13:16:40;25.20;99.90
23267;DHT22;11802;53.160;8.214;2023-07-20T13:19:06;25.30;1.00
23267;DHT22;11802;53.160;8.214;2023-07-20T13:21:32;25.40;99.90
23267;DHT22;11802;53.160;8.214;2023-07-20T13:23:58;25.40;1.00
23267;DHT22;11802;53.160;8.214;2023-07-20T13:26:23;25.50;1.00
23267;DHT22;11802;53.160;8.214;2023-07-20T13:28:49;26.00;99.90
23267;DHT22;11802;53.160;8.214;2023-07-20T13:31:14;26.20;99.90
23267;DHT22;11802;53.160;8.214;2023-07-20T13:33:42;26.30;99.90
23267;DHT22;11802;53.160;8.214;2023-07-20T13:36:07;26.10;99.90
23267;DHT22;11802;53.160;8.214;2023-07-20T13:38:32;26.50;99.90
23267;DHT22;11802;53.160;8.214;2023-07-20T13:40:58;26.50;99.90
23267;DHT22;11802;53.160;8.214;2023-07-20T13:43:24;26.30;99.90
23267;DHT22;11802;53.160;8.214;2023-07-20T13:45:50;26.40;99.90
23267;DHT22;11802;53.160;8.214;2023-07-20T13:48:15;26.40;99.90
23267;DHT22;11802;53.160;8.214;2023-07-20T13:50:45;25.40;99.90
23267;DHT22;11802;53.160;8.214;2023-07-20T13:53:10;24.90;1.00
23267;DHT22;11802;53.160;8.214;2023-07-20T13:55:36;24.70;99.90
23267;DHT22;11802;53.160;8.214;2023-07-20T13:58:02;24.60;1.00
23267;DHT22;11802;53.160;8.214;2023-07-20T14:00:28;24.20;1.00
23267;DHT22;11802;53.160;8.214;2023-07-20T14:03:00;24.30;1.00
23267;DHT22;11802;53.160;8.214;2023-07-20T14:05:26;24.60;1.00
23267;DHT22;11802;53.160;8.214;2023-07-20T14:07:51;24.80;1.00
23267;DHT22;11802;53.160;8.214;2023-07-20T14:10:17;25.00;1.00
23267;DHT22;11802;53.160;8.214;2023-07-20T14:12:43;25.10;1.00
23267;DHT22;11802;53.160;8.214;2023-07-20T14:15:10;25.20;1.00
23267;DHT22;11802;53.160;8.214;2023-07-20T14:17:35;25.30;1.00
23267;DHT22;11802;53.160;8.214;2023-07-20T14:20:01;25.00;1.00
23267;DHT22;11802;53.160;8.214;2023-07-20T14:22:30;25.10;1.00
23267;DHT22;11802;53.160;8.214;2023-07-20T14:24:56;25.20;1.00
23267;DHT22;11802;53.160;8.214;2023-07-20T14:27:21;24.90;1.00
23267;DHT22;11802;53.160;8.214;2023-07-20T14:29:47;24.80;1.00
23267;DHT22;11802;53.160;8.214;2023-07-20T14:32:13;24.80;1.00
23267;DHT22;11802;53.160;8.214;2023-07-20T14:34:38;24.90;1.00
23267;DHT22;11802;53.160;8.214;2023-07-20T14:37:04;24.90;1.00
23267;DHT22;11802;53.160;8.214;2023-07-20T14:39:30;24.80;1.00
23267;DHT22;11802;53.160;8.214;2023-07-20T14:41:56;24.30;1.00
23267;DHT22;11802;53.160;8.214;2023-07-20T14:44:21;24.10;1.00
23267;DHT22;11802;53.160;8.214;2023-07-20T14:46:47;23.50;1.00
23267;DHT22;11802;53.160;8.214;2023-07-20T14:49:12;23.30;1.00
23267;DHT22;11802;53.160;8.214;2023-07-20T14:51:38;22.80;1.00
23267;DHT22;11802;53.160;8.214;2023-07-20T14:54:09;22.80;99.90
23267;DHT22;11802;53.160;8.214;2023-07-20T14:56:34;23.20;1.00
23267;DHT22;11802;53.160;8.214;2023-07-20T14:59:00;23.40;1.00
23267;DHT22;11802;53.160;8.214;2023-07-20T15:01:26;23.60;1.00
23267;DHT22;11802;53.160;8.214;2023-07-20T15:03:51;23.60;1.00
23267;DHT22;11802;53.160;8.214;2023-07-20T15:06:19;23.70;1.00
23267;DHT22;11802;53.160;8.214;2023-07-20T15:08:44;23.70;1.00
23267;DHT22;11802;53.160;8.214;2023-07-20T15:11:10;23.60;1.00
23267;DHT22;11802;53.160;8.214;2023-07-20T15:13:35;23.70;1.00
23267;DHT22;11802;53.160;8.214;2023-07-20T15:16:01;23.80;1.00
23267;DHT22;11802;53.160;8.214;2023-07-20T15:18:26;24.00;1.00
23267;DHT22;11802;53.160;8.214;2023-07-20T15:20:52;24.10;1.00
23267;DHT22;11802;53.160;8.214;2023-07-20T15:23:20;24.00;1.00
23267;DHT22;11802;53.160;8.214;2023-07-20T15:25:46;23.70;1.00
23267;DHT22;11802;53.160;8.214;2023-07-20T15:28:11;23.50;1.00
23267;DHT22;11802;53.160;8.214;2023-07-20T15:30:37;23.30;1.00
23267;DHT22;11802;53.160;8.214;2023-07-20T15:33:03;23.10;1.00
23267;DHT22;11802;53.160;8.214;2023-07-20T15:35:28;22.80;1.00
23267;DHT22;11802;53.160;8.214;2023-07-20T15:37:55;22.70;1.00
23267;DHT22;11802;53.160;8.214;2023-07-20T15:40:21;22.70;1.00
23267;DHT22;11802;53.160;8.214;2023-07-20T15:42:47;22.50;1.00
23267;DHT22;11802;53.160;8.214;2023-07-20T15:45:13;22.50;1.00